sensor_id;sensor_type;location;lat;lon;timestamp;noise_LAeq;noise_LA_min;noise_LA_max;noise_LA01;noise_LA95
64996;Laerm;51545;51.568;6.998;2022-09-27T00:00:28;43.91;39.72;53.72;;
64996;Laerm;51545;51.568;6.998;2022-09-27T00:02:54;42.96;39.24;52.86;;
64996;Laerm;51545;51.568;6.998;2022-09-27T00:05:20;43.02;39.11;64.86;;
64996;Laerm;51545;51.568;6.998;2022-09-27T00:07:45;42.52;37.63;51.36;;
64996;Laerm;51545;51.568;6.998;2022-09-27T00:10:11;43.01;38.91;55.46;;
64996;Laerm;51545;51.568;6.998;2022-09-27T00:12:37;42.92;39.13;56.18;;
64996;Laerm;51545;51.568;6.998;2022-09-27T00:15:04;44.03;40.60;52.66;;
64996;Laerm;51545;51.568;6.998;2022-09-27T00:17:30;44.55;40.09;59.08;;
64996;Laerm;51545;51.568;6.998;2022-09-27T00:19:58;43.27;38.65;56.11;;
64996;Laerm;51545;51.568;6.998;2022-09-27T00:22:24;43.62;38.07;55.24;;
64996;Laerm;51545;51.568;6.998;2022-09-27T00:24:50;42.71;39.00;52.49;;
64996;Laerm;51545;51.568;6.998;2022-09-27T00:27:17;43.07;37.70;52.59;;
64996;Laerm;51545;51.568;6.998;2022-09-27T00:29:44;42.57;37.28;61.39;;
64996;Laerm;51545;51.568;6.998;2022-09-27T00:32:11;43.57;36.86;53.28;;
64996;Laerm;51545;51.568;6.998;2022-09-27T00:34:39;41.27;36.91;52.64;;
64996;Laerm;51545;51.568;6.998;2022-09-27T00:37:05;41.93;35.88;49.62;;
64996;Laerm;51545;51.568;6.998;2022-09-27T00:39:30;41.92;35.94;54.65;;
64996;Laerm;51545;51.568;6.998;2022-09-27T00:41:56;41.77;35.79;54.94;;
64996;Laerm;51545;51.568;6.998;2022-09-27T00:47:03;42.13;36.77;55.64;;
64996;Laerm;51545;51.568;6.998;2022-09-27T00:49:32;42.10;36.79;53.04;;
64996;Laerm;51545;51.568;6.998;2022-09-27T00:52:08;42.99;36.46;56.17;;
64996;Laerm;51545;51.568;6.998;2022-09-27T00:54:35;40.53;36.64;53.70;;
64996;Laerm;51545;51.568;6.998;2022-09-27T00:57:04;42.48;37.20;52.11;;
64996;Laerm;51545;51.568;6.998;2022-09-27T00:59:42;41.17;37.70;53.42;;
64996;Laerm;51545;51.568;6.998;2022-09-27T01:02:10;42.64;38.56;54.80;;
64996;Laerm;51545;51.568;6.998;2022-09-27T01:04:37;44.17;38.81;57.71;;
64996;Laerm;51545;51.568;6.998;2022-09-27T01:07:03;43.98;39.49;58.30;;
64996;Laerm;51545;51.568;6.998;2022-09-27T01:09:29;43.20;39.10;53.31;;
64996;Laerm;51545;51.568;6.998;2022-09-27T01:12:25;43.77;39.45;53.53;;
64996;Laerm;51545;51.568;6.998;2022-09-27T01:21:04;45.32;39.13;60.97;;
64996;Laerm;51545;51.568;6.998;2022-09-27T01:23:50;45.53;38.33;53.60;;
64996;Laerm;51545;51.568;6.998;2022-09-27T01:26:34;44.29;38.89;53.40;;
64996;Laerm;51545;51.568;6.998;2022-09-27T01:29:12;44.43;40.41;52.75;;
64996;Laerm;51545;51.568;6.998;2022-09-27T01:34:18;44.17;39.45;55.18;;
64996;Laerm;51545;51.568;6.998;2022-09-27T01:44:39;41.28;35.91;54.50;;
64996;Laerm;51545;51.568;6.998;2022-09-27T01:47:15;41.90;36.15;49.21;;
64996;Laerm;51545;51.568;6.998;2022-09-27T01:50:18;43.65;37.85;55.18;;
64996;Laerm;51545;51.568;6.998;2022-09-27T01:52:47;43.58;37.72;56.70;;
64996;Laerm;51545;51.568;6.998;2022-09-27T01:55:16;42.25;36.68;52.65;;
64996;Laerm;51545;51.568;6.998;2022-09-27T01:57:49;44.05;38.43;55.71;;
64996;Laerm;51545;51.568;6.998;2022-09-27T02:00:19;41.91;37.01;54.11;;
64996;Laerm;51545;51.568;6.998;2022-09-27T02:02:58;43.50;37.96;54.07;;
64996;Laerm;51545;51.568;6.998;2022-09-27T02:05:29;44.28;39.59;56.15;;
64996;Laerm;51545;51.568;6.998;2022-09-27T02:07:59;43.99;38.49;52.76;;
64996;Laerm;51545;51.568;6.998;2022-09-27T02:10:38;44.83;39.45;53.30;;
64996;Laerm;51545;51.568;6.998;2022-09-27T02:18:31;42.83;37.63;53.18;;
64996;Laerm;51545;51.568;6.998;2022-09-27T02:20:59;45.13;39.18;64.91;;
64996;Laerm;51545;51.568;6.998;2022-09-27T02:23:43;44.91;39.90;52.93;;
64996;Laerm;51545;51.568;6.998;2022-09-27T02:26:24;43.78;37.86;49.78;;
64996;Laerm;51545;51.568;6.998;2022-09-27T02:31:37;43.30;38.87;56.65;;
64996;Laerm;51545;51.568;6.998;2022-09-27T02:34:10;44.76;40.37;50.69;;
64996;Laerm;51545;51.568;6.998;2022-09-27T02:36:37;45.96;40.60;54.07;;
64996;Laerm;51545;51.568;6.998;2022-09-27T02:39:03;45.61;40.07;53.75;;
64996;Laerm;51545;51.568;6.998;2022-09-27T02:41:29;46.55;41.37;51.20;;
64996;Laerm;51545;51.568;6.998;2022-09-27T02:43:57;44.95;39.09;52.05;;
64996;Laerm;51545;51.568;6.998;2022-09-27T02:54:23;45.34;41.37;53.61;;
64996;Laerm;51545;51.568;6.998;2022-09-27T02:59:58;45.98;42.04;55.16;;
64996;Laerm;51545;51.568;6.998;2022-09-27T03:02:34;45.07;40.19;53.76;;
64996;Laerm;51545;51.568;6.998;2022-09-27T03:05:06;44.91;40.26;49.00;;
64996;Laerm;51545;51.568;6.998;2022-09-27T03:07:33;46.45;42.04;50.94;;
64996;Laerm;51545;51.568;6.998;2022-09-27T03:09:59;46.35;42.56;52.46;;
64996;Laerm;51545;51.568;6.998;2022-09-27T03:12:25;45.95;42.95;54.99;;
64996;Laerm;51545;51.568;6.998;2022-09-27T03:14:53;46.38;42.68;50.06;;
64996;Laerm;51545;51.568;6.998;2022-09-27T03:17:19;45.67;42.99;49.42;;
64996;Laerm;51545;51.568;6.998;2022-09-27T03:19:44;45.45;41.62;49.53;;
64996;Laerm;51545;51.568;6.998;2022-09-27T03:22:10;46.35;43.01;49.64;;
64996;Laerm;51545;51.568;6.998;2022-09-27T03:24:35;45.89;41.35;54.68;;
64996;Laerm;51545;51.568;6.998;2022-09-27T03:27:01;45.57;41.99;50.01;;
64996;Laerm;51545;51.568;6.998;2022-09-27T03:29:28;46.48;42.19;52.51;;
64996;Laerm;51545;51.568;6.998;2022-09-27T03:31:53;46.16;42.50;49.87;;
64996;Laerm;51545;51.568;6.998;2022-09-27T03:34:19;46.83;43.30;51.20;;
64996;Laerm;51545;51.568;6.998;2022-09-27T03:36:44;46.70;42.21;54.22;;
64996;Laerm;51545;51.568;6.998;2022-09-27T03:39:09;46.93;42.96;53.69;;
64996;Laerm;51545;51.568;6.998;2022-09-27T03:41:35;48.03;44.04;56.59;;
64996;Laerm;51545;51.568;6.998;2022-09-27T03:44:01;48.06;44.52;54.96;;
64996;Laerm;51545;51.568;6.998;2022-09-27T03:46:26;47.36;44.11;50.81;;
64996;Laerm;51545;51.568;6.998;2022-09-27T03:48:52;46.85;42.82;49.91;;
64996;Laerm;51545;51.568;6.998;2022-09-27T03:51:17;47.18;43.64;49.94;;
64996;Laerm;51545;51.568;6.998;2022-09-27T03:53:43;47.32;44.04;56.82;;
64996;Laerm;51545;51.568;6.998;2022-09-27T03:56:08;47.19;43.42;54.61;;
64996;Laerm;51545;51.568;6.998;2022-09-27T03:58:34;47.52;43.86;54.76;;
64996;Laerm;51545;51.568;6.998;2022-09-27T04:01:00;47.81;43.71;54.98;;
64996;Laerm;51545;51.568;6.998;2022-09-27T04:03:25;46.52;42.76;50.78;;
64996;Laerm;51545;51.568;6.998;2022-09-27T04:05:53;47.69;44.01;55.54;;
64996;Laerm;51545;51.568;6.998;2022-09-27T04:08:19;46.93;43.32;56.06;;
64996;Laerm;51545;51.568;6.998;2022-09-27T04:10:46;48.15;44.11;54.88;;
64996;Laerm;51545;51.568;6.998;2022-09-27T04:13:12;48.93;45.53;56.37;;
64996;Laerm;51545;51.568;6.998;2022-09-27T04:15:38;48.42;44.40;56.15;;
64996;Laerm;51545;51.568;6.998;2022-09-27T04:18:04;47.87;44.62;51.50;;
64996;Laerm;51545;51.568;6.998;2022-09-27T04:20:29;47.71;44.34;50.57;;
64996;Laerm;51545;51.568;6.998;2022-09-27T04:22:55;47.79;43.63;52.50;;
64996;Laerm;51545;51.568;6.998;2022-09-27T04:25:21;48.38;44.32;53.99;;
64996;Laerm;51545;51.568;6.998;2022-09-27T04:27:46;47.62;44.18;55.37;;
64996;Laerm;51545;51.568;6.998;2022-09-27T04:30:13;47.44;43.66;54.19;;
64996;Laerm;51545;51.568;6.998;2022-09-27T04:32:42;47.25;43.64;52.14;;
64996;Laerm;51545;51.568;6.998;2022-09-27T04:35:10;47.86;44.56;57.90;;
64996;Laerm;51545;51.568;6.998;2022-09-27T04:37:54;47.82;43.56;53.37;;
64996;Laerm;51545;51.568;6.998;2022-09-27T04:40:20;48.40;44.93;58.97;;
64996;Laerm;51545;51.568;6.998;2022-09-27T04:42:49;49.23;45.72;57.01;;
64996;Laerm;51545;51.568;6.998;2022-09-27T04:45:15;48.75;45.40;54.76;;
64996;Laerm;51545;51.568;6.998;2022-09-27T04:47:43;48.83;45.34;54.63;;
64996;Laerm;51545;51.568;6.998;2022-09-27T04:50:09;47.84;43.83;53.09;;
64996;Laerm;51545;51.568;6.998;2022-09-27T04:52:34;48.20;44.87;53.06;;
64996;Laerm;51545;51.568;6.998;2022-09-27T04:55:00;48.65;45.41;56.63;;
64996;Laerm;51545;51.568;6.998;2022-09-27T04:57:25;48.33;44.51;58.78;;
64996;Laerm;51545;51.568;6.998;2022-09-27T04:59:51;47.74;44.18;59.51;;
64996;Laerm;51545;51.568;6.998;2022-09-27T05:02:16;48.69;45.39;54.54;;
64996;Laerm;51545;51.568;6.998;2022-09-27T05:04:42;48.67;45.20;59.49;;
64996;Laerm;51545;51.568;6.998;2022-09-27T05:07:08;48.68;44.77;55.03;;
64996;Laerm;51545;51.568;6.998;2022-09-27T05:09:33;48.83;45.67;55.09;;
64996;Laerm;51545;51.568;6.998;2022-09-27T05:11:59;49.34;45.84;66.16;;
64996;Laerm;51545;51.568;6.998;2022-09-27T05:14:25;48.56;45.82;56.54;;
64996;Laerm;51545;51.568;6.998;2022-09-27T05:16:52;49.17;45.29;56.97;;
64996;Laerm;51545;51.568;6.998;2022-09-27T05:19:18;49.32;46.53;57.64;;
64996;Laerm;51545;51.568;6.998;2022-09-27T05:21:43;49.94;45.70;57.92;;
64996;Laerm;51545;51.568;6.998;2022-09-27T05:24:09;49.53;45.80;57.45;;
64996;Laerm;51545;51.568;6.998;2022-09-27T05:26:34;49.45;46.26;56.83;;
64996;Laerm;51545;51.568;6.998;2022-09-27T05:29:02;50.27;47.28;56.09;;
64996;Laerm;51545;51.568;6.998;2022-09-27T05:31:27;50.50;46.60;60.40;;
64996;Laerm;51545;51.568;6.998;2022-09-27T05:33:53;49.81;45.38;60.24;;
64996;Laerm;51545;51.568;6.998;2022-09-27T05:36:20;49.63;45.69;57.08;;
64996;Laerm;51545;51.568;6.998;2022-09-27T05:38:45;49.97;46.24;64.60;;
64996;Laerm;51545;51.568;6.998;2022-09-27T05:41:11;49.19;45.94;53.64;;
64996;Laerm;51545;51.568;6.998;2022-09-27T05:43:36;50.04;46.42;62.41;;
64996;Laerm;51545;51.568;6.998;2022-09-27T05:46:02;49.30;46.20;58.32;;
64996;Laerm;51545;51.568;6.998;2022-09-27T05:48:30;51.10;45.11;67.96;;
64996;Laerm;51545;51.568;6.998;2022-09-27T05:50:55;49.38;45.68;56.38;;
64996;Laerm;51545;51.568;6.998;2022-09-27T05:53:21;50.02;46.39;65.19;;
64996;Laerm;51545;51.568;6.998;2022-09-27T05:55:46;52.70;45.76;75.54;;
64996;Laerm;51545;51.568;6.998;2022-09-27T05:58:13;48.89;45.25;60.31;;
64996;Laerm;51545;51.568;6.998;2022-09-27T06:00:41;49.76;46.62;65.25;;
64996;Laerm;51545;51.568;6.998;2022-09-27T06:03:10;49.43;46.28;58.57;;
64996;Laerm;51545;51.568;6.998;2022-09-27T06:05:38;50.14;46.39;66.63;;
64996;Laerm;51545;51.568;6.998;2022-09-27T06:08:06;49.97;45.00;64.56;;
64996;Laerm;51545;51.568;6.998;2022-09-27T06:10:32;49.69;45.89;58.95;;
64996;Laerm;51545;51.568;6.998;2022-09-27T06:13:04;53.22;45.14;66.56;;
64996;Laerm;51545;51.568;6.998;2022-09-27T06:15:31;49.32;45.89;55.77;;
64996;Laerm;51545;51.568;6.998;2022-09-27T06:18:05;51.65;46.83;65.64;;
64996;Laerm;51545;51.568;6.998;2022-09-27T06:20:32;49.20;45.11;56.29;;
64996;Laerm;51545;51.568;6.998;2022-09-27T06:23:11;49.03;46.08;54.14;;
64996;Laerm;51545;51.568;6.998;2022-09-27T06:25:37;48.96;45.29;60.00;;
64996;Laerm;51545;51.568;6.998;2022-09-27T06:28:04;48.76;45.63;57.56;;
64996;Laerm;51545;51.568;6.998;2022-09-27T06:30:30;48.30;44.80;52.07;;
64996;Laerm;51545;51.568;6.998;2022-09-27T06:33:00;49.10;45.52;57.02;;
64996;Laerm;51545;51.568;6.998;2022-09-27T06:35:27;64.88;46.86;72.48;;
64996;Laerm;51545;51.568;6.998;2022-09-27T06:37:53;50.65;45.66;61.10;;
64996;Laerm;51545;51.568;6.998;2022-09-27T06:40:19;49.27;46.26;60.37;;
64996;Laerm;51545;51.568;6.998;2022-09-27T06:42:44;53.24;46.19;79.67;;
64996;Laerm;51545;51.568;6.998;2022-09-27T06:45:10;48.93;45.51;59.35;;
64996;Laerm;51545;51.568;6.998;2022-09-27T06:47:36;54.12;46.11;67.71;;
64996;Laerm;51545;51.568;6.998;2022-09-27T06:50:03;49.15;45.89;55.17;;
64996;Laerm;51545;51.568;6.998;2022-09-27T06:52:33;49.60;46.44;53.41;;
64996;Laerm;51545;51.568;6.998;2022-09-27T06:55:03;49.97;46.60;56.94;;
64996;Laerm;51545;51.568;6.998;2022-09-27T06:57:29;51.49;47.51;62.28;;
64996;Laerm;51545;51.568;6.998;2022-09-27T07:00:13;51.08;46.59;66.49;;
64996;Laerm;51545;51.568;6.998;2022-09-27T07:02:48;51.54;46.54;63.87;;
64996;Laerm;51545;51.568;6.998;2022-09-27T07:05:14;52.06;45.44;67.55;;
64996;Laerm;51545;51.568;6.998;2022-09-27T07:07:39;50.43;46.73;64.05;;
64996;Laerm;51545;51.568;6.998;2022-09-27T07:10:05;49.91;46.40;63.93;;
64996;Laerm;51545;51.568;6.998;2022-09-27T07:12:31;49.40;46.95;57.03;;
64996;Laerm;51545;51.568;6.998;2022-09-27T07:14:56;48.75;45.08;60.64;;
64996;Laerm;51545;51.568;6.998;2022-09-27T07:17:22;48.58;45.08;63.89;;
64996;Laerm;51545;51.568;6.998;2022-09-27T07:19:48;48.82;45.22;60.50;;
64996;Laerm;51545;51.568;6.998;2022-09-27T07:22:13;51.04;45.70;60.09;;
64996;Laerm;51545;51.568;6.998;2022-09-27T07:24:39;58.23;48.79;82.16;;
64996;Laerm;51545;51.568;6.998;2022-09-27T07:27:04;52.17;46.78;68.92;;
64996;Laerm;51545;51.568;6.998;2022-09-27T07:29:30;49.16;45.52;54.56;;
64996;Laerm;51545;51.568;6.998;2022-09-27T07:31:56;48.47;44.86;59.71;;
64996;Laerm;51545;51.568;6.998;2022-09-27T07:34:21;49.11;44.95;60.43;;
64996;Laerm;51545;51.568;6.998;2022-09-27T07:36:47;48.18;44.71;58.75;;
64996;Laerm;51545;51.568;6.998;2022-09-27T07:39:12;48.71;45.04;56.41;;
64996;Laerm;51545;51.568;6.998;2022-09-27T07:41:38;49.29;45.76;58.67;;
64996;Laerm;51545;51.568;6.998;2022-09-27T07:44:04;49.24;45.76;59.29;;
64996;Laerm;51545;51.568;6.998;2022-09-27T07:46:30;49.06;45.66;56.52;;
64996;Laerm;51545;51.568;6.998;2022-09-27T07:48:56;50.37;45.59;63.08;;
64996;Laerm;51545;51.568;6.998;2022-09-27T07:51:21;63.44;50.98;79.52;;
64996;Laerm;51545;51.568;6.998;2022-09-27T07:53:47;56.16;49.26;65.89;;
64996;Laerm;51545;51.568;6.998;2022-09-27T07:56:12;56.13;49.70;60.08;;
64996;Laerm;51545;51.568;6.998;2022-09-27T07:58:38;59.88;53.97;65.59;;
64996;Laerm;51545;51.568;6.998;2022-09-27T08:01:04;65.13;53.94;74.34;;
64996;Laerm;51545;51.568;6.998;2022-09-27T08:03:30;59.01;52.88;66.68;;
64996;Laerm;51545;51.568;6.998;2022-09-27T08:05:55;61.92;52.76;79.37;;
64996;Laerm;51545;51.568;6.998;2022-09-27T08:08:21;70.60;60.64;92.75;;
64996;Laerm;51545;51.568;6.998;2022-09-27T08:10:46;69.49;60.86;76.42;;
64996;Laerm;51545;51.568;6.998;2022-09-27T08:13:13;70.74;64.95;76.54;;
64996;Laerm;51545;51.568;6.998;2022-09-27T08:15:39;63.56;51.05;74.77;;
64996;Laerm;51545;51.568;6.998;2022-09-27T08:18:05;58.17;52.36;66.08;;
64996;Laerm;51545;51.568;6.998;2022-09-27T08:20:31;57.40;50.32;65.55;;
64996;Laerm;51545;51.568;6.998;2022-09-27T08:22:57;49.33;45.05;58.69;;
64996;Laerm;51545;51.568;6.998;2022-09-27T08:25:22;56.65;49.18;65.08;;
64996;Laerm;51545;51.568;6.998;2022-09-27T08:27:59;65.27;50.65;72.63;;
64996;Laerm;51545;51.568;6.998;2022-09-27T08:30:27;61.75;52.65;69.02;;
64996;Laerm;51545;51.568;6.998;2022-09-27T08:32:56;56.80;51.73;73.78;;
64996;Laerm;51545;51.568;6.998;2022-09-27T08:35:22;56.94;50.95;70.51;;
64996;Laerm;51545;51.568;6.998;2022-09-27T08:37:55;58.34;48.99;69.61;;
64996;Laerm;51545;51.568;6.998;2022-09-27T08:40:23;59.88;48.93;84.93;;
64996;Laerm;51545;51.568;6.998;2022-09-27T08:43:00;52.87;48.38;68.29;;
64996;Laerm;51545;51.568;6.998;2022-09-27T08:45:36;53.49;48.16;67.28;;
64996;Laerm;51545;51.568;6.998;2022-09-27T08:48:05;52.43;47.72;63.83;;
64996;Laerm;51545;51.568;6.998;2022-09-27T08:50:40;53.14;49.16;64.45;;
64996;Laerm;51545;51.568;6.998;2022-09-27T08:55:43;54.44;49.06;67.85;;
64996;Laerm;51545;51.568;6.998;2022-09-27T08:58:24;53.35;46.67;68.89;;
64996;Laerm;51545;51.568;6.998;2022-09-27T09:00:55;52.52;46.80;57.80;;
64996;Laerm;51545;51.568;6.998;2022-09-27T09:03:28;52.33;46.62;57.86;;
64996;Laerm;51545;51.568;6.998;2022-09-27T09:08:42;52.32;47.11;63.83;;
64996;Laerm;51545;51.568;6.998;2022-09-27T09:11:30;54.43;47.99;72.67;;
64996;Laerm;51545;51.568;6.998;2022-09-27T09:17:27;50.08;45.74;57.78;;
64996;Laerm;51545;51.568;6.998;2022-09-27T09:21:23;50.55;45.48;64.38;;
64996;Laerm;51545;51.568;6.998;2022-09-27T09:26:34;50.28;45.26;59.49;;
64996;Laerm;51545;51.568;6.998;2022-09-27T09:29:06;50.03;46.04;58.33;;
64996;Laerm;51545;51.568;6.998;2022-09-27T09:34:09;50.21;45.32;62.62;;
64996;Laerm;51545;51.568;6.998;2022-09-27T09:37:10;49.83;45.72;58.40;;
64996;Laerm;51545;51.568;6.998;2022-09-27T09:39:44;52.56;45.18;65.06;;
64996;Laerm;51545;51.568;6.998;2022-09-27T09:42:31;52.88;46.29;70.00;;
64996;Laerm;51545;51.568;6.998;2022-09-27T09:49:57;49.81;45.91;65.61;;
64996;Laerm;51545;51.568;6.998;2022-09-27T09:52:39;53.58;46.57;79.02;;
64996;Laerm;51545;51.568;6.998;2022-09-27T09:55:16;49.88;45.87;62.40;;
64996;Laerm;51545;51.568;6.998;2022-09-27T09:58:01;53.66;45.02;78.50;;
64996;Laerm;51545;51.568;6.998;2022-09-27T10:00:28;49.45;45.79;60.94;;
64996;Laerm;51545;51.568;6.998;2022-09-27T10:02:58;48.14;43.84;55.17;;
64996;Laerm;51545;51.568;6.998;2022-09-27T10:05:25;49.22;45.58;64.97;;
64996;Laerm;51545;51.568;6.998;2022-09-27T10:07:54;50.00;45.22;60.99;;
64996;Laerm;51545;51.568;6.998;2022-09-27T10:10:22;49.12;43.97;61.33;;
64996;Laerm;51545;51.568;6.998;2022-09-27T10:12:48;53.53;43.79;78.82;;
64996;Laerm;51545;51.568;6.998;2022-09-27T10:15:19;50.05;45.57;62.13;;
64996;Laerm;51545;51.568;6.998;2022-09-27T10:17:48;50.18;45.30;67.63;;
64996;Laerm;51545;51.568;6.998;2022-09-27T10:20:26;55.53;46.45;82.15;;
64996;Laerm;51545;51.568;6.998;2022-09-27T10:22:57;50.28;45.08;61.04;;
64996;Laerm;51545;51.568;6.998;2022-09-27T10:25:44;51.68;46.22;65.24;;
64996;Laerm;51545;51.568;6.998;2022-09-27T10:28:28;51.41;46.15;66.05;;
64996;Laerm;51545;51.568;6.998;2022-09-27T10:30:59;50.84;46.22;67.77;;
64996;Laerm;51545;51.568;6.998;2022-09-27T10:33:26;52.39;45.15;72.82;;
64996;Laerm;51545;51.568;6.998;2022-09-27T10:35:52;49.94;45.49;62.91;;
64996;Laerm;51545;51.568;6.998;2022-09-27T10:40:45;48.20;45.22;59.94;;
64996;Laerm;51545;51.568;6.998;2022-09-27T10:43:30;48.19;45.02;53.81;;
64996;Laerm;51545;51.568;6.998;2022-09-27T10:48:33;47.97;43.72;55.14;;
64996;Laerm;51545;51.568;6.998;2022-09-27T10:51:04;47.46;43.97;54.19;;
64996;Laerm;51545;51.568;6.998;2022-09-27T10:53:31;47.93;44.22;57.43;;
64996;Laerm;51545;51.568;6.998;2022-09-27T10:55:58;48.86;44.44;64.73;;
64996;Laerm;51545;51.568;6.998;2022-09-27T10:58:35;51.12;45.28;66.86;;
64996;Laerm;51545;51.568;6.998;2022-09-27T11:01:07;47.80;44.05;58.06;;
64996;Laerm;51545;51.568;6.998;2022-09-27T11:03:51;47.93;44.21;59.20;;
64996;Laerm;51545;51.568;6.998;2022-09-27T11:06:24;47.17;42.76;60.29;;
64996;Laerm;51545;51.568;6.998;2022-09-27T11:08:53;47.42;43.33;55.46;;
64996;Laerm;51545;51.568;6.998;2022-09-27T11:11:27;49.16;44.88;56.47;;
64996;Laerm;51545;51.568;6.998;2022-09-27T11:14:02;48.85;45.40;56.95;;
64996;Laerm;51545;51.568;6.998;2022-09-27T11:16:47;50.08;45.58;62.06;;
64996;Laerm;51545;51.568;6.998;2022-09-27T11:30:22;48.92;45.51;53.12;;
64996;Laerm;51545;51.568;6.998;2022-09-27T11:36:12;49.42;45.94;59.46;;
64996;Laerm;51545;51.568;6.998;2022-09-27T11:39:08;50.01;45.62;58.01;;
64996;Laerm;51545;51.568;6.998;2022-09-27T11:49:45;49.42;45.89;58.80;;
64996;Laerm;51545;51.568;6.998;2022-09-27T11:55:44;50.47;45.71;67.34;;
64996;Laerm;51545;51.568;6.998;2022-09-27T12:01:49;49.07;44.27;60.29;;
64996;Laerm;51545;51.568;6.998;2022-09-27T12:09:35;51.01;46.68;63.01;;
64996;Laerm;51545;51.568;6.998;2022-09-27T12:12:13;49.71;45.60;59.91;;
64996;Laerm;51545;51.568;6.998;2022-09-27T12:14:50;49.91;46.06;59.99;;
64996;Laerm;51545;51.568;6.998;2022-09-27T12:17:21;49.30;45.32;68.41;;
64996;Laerm;51545;51.568;6.998;2022-09-27T12:19:51;50.37;45.46;75.87;;
64996;Laerm;51545;51.568;6.998;2022-09-27T12:22:24;49.00;45.76;63.25;;
64996;Laerm;51545;51.568;6.998;2022-09-27T12:24:51;49.35;45.47;64.80;;
64996;Laerm;51545;51.568;6.998;2022-09-27T12:27:41;48.93;44.66;61.20;;
64996;Laerm;51545;51.568;6.998;2022-09-27T12:30:12;49.06;45.09;66.74;;
64996;Laerm;51545;51.568;6.998;2022-09-27T12:35:51;48.60;44.97;60.47;;
64996;Laerm;51545;51.568;6.998;2022-09-27T12:38:33;50.32;46.72;62.30;;
64996;Laerm;51545;51.568;6.998;2022-09-27T12:41:01;48.87;45.39;62.06;;
64996;Laerm;51545;51.568;6.998;2022-09-27T12:43:30;48.44;45.25;55.52;;
64996;Laerm;51545;51.568;6.998;2022-09-27T12:48:57;46.95;43.60;59.72;;
64996;Laerm;51545;51.568;6.998;2022-09-27T12:51:47;49.95;43.53;72.54;;
64996;Laerm;51545;51.568;6.998;2022-09-27T13:00:10;49.13;45.46;65.80;;
64996;Laerm;51545;51.568;6.998;2022-09-27T13:11:22;48.05;45.06;60.66;;
64996;Laerm;51545;51.568;6.998;2022-09-27T13:13:54;51.22;44.62;63.50;;
64996;Laerm;51545;51.568;6.998;2022-09-27T13:16:20;49.43;45.47;58.65;;
64996;Laerm;51545;51.568;6.998;2022-09-27T13:18:53;48.35;44.03;56.54;;
64996;Laerm;51545;51.568;6.998;2022-09-27T13:35:34;47.25;43.75;57.30;;
64996;Laerm;51545;51.568;6.998;2022-09-27T13:37:59;48.45;44.72;56.38;;
64996;Laerm;51545;51.568;6.998;2022-09-27T13:40:32;51.54;45.16;71.25;;
64996;Laerm;51545;51.568;6.998;2022-09-27T13:45:57;48.21;44.25;62.11;;
64996;Laerm;51545;51.568;6.998;2022-09-27T13:51:05;49.05;44.68;60.43;;
64996;Laerm;51545;51.568;6.998;2022-09-27T13:53:38;49.38;45.07;66.92;;
64996;Laerm;51545;51.568;6.998;2022-09-27T13:56:04;48.53;44.62;58.44;;
64996;Laerm;51545;51.568;6.998;2022-09-27T13:58:41;48.35;44.15;58.84;;
64996;Laerm;51545;51.568;6.998;2022-09-27T14:01:28;46.93;42.93;63.46;;
64996;Laerm;51545;51.568;6.998;2022-09-27T14:03:59;47.24;44.01;54.97;;
64996;Laerm;51545;51.568;6.998;2022-09-27T14:06:34;46.41;42.54;56.12;;
64996;Laerm;51545;51.568;6.998;2022-09-27T14:09:34;47.04;42.79;62.47;;
64996;Laerm;51545;51.568;6.998;2022-09-27T14:12:00;47.28;43.10;62.67;;
64996;Laerm;51545;51.568;6.998;2022-09-27T14:14:30;51.47;44.00;68.23;;
64996;Laerm;51545;51.568;6.998;2022-09-27T14:17:00;53.06;43.07;69.14;;
64996;Laerm;51545;51.568;6.998;2022-09-27T14:19:27;51.15;44.24;68.00;;
64996;Laerm;51545;51.568;6.998;2022-09-27T14:21:53;51.15;44.00;66.56;;
64996;Laerm;51545;51.568;6.998;2022-09-27T14:24:31;49.96;43.55;65.87;;
64996;Laerm;51545;51.568;6.998;2022-09-27T14:29:31;53.00;44.57;72.71;;
64996;Laerm;51545;51.568;6.998;2022-09-27T14:32:25;52.57;45.13;74.02;;
64996;Laerm;51545;51.568;6.998;2022-09-27T14:35:12;50.57;44.47;68.20;;
64996;Laerm;51545;51.568;6.998;2022-09-27T14:38:09;48.32;44.30;58.11;;
64996;Laerm;51545;51.568;6.998;2022-09-27T14:40:41;48.74;44.15;67.18;;
64996;Laerm;51545;51.568;6.998;2022-09-27T14:43:18;49.16;44.23;63.16;;
64996;Laerm;51545;51.568;6.998;2022-09-27T14:45:46;46.61;42.39;65.80;;
64996;Laerm;51545;51.568;6.998;2022-09-27T14:48:28;47.08;42.62;63.45;;
64996;Laerm;51545;51.568;6.998;2022-09-27T14:53:32;49.48;43.09;66.27;;
64996;Laerm;51545;51.568;6.998;2022-09-27T14:56:00;49.61;44.54;64.61;;
64996;Laerm;51545;51.568;6.998;2022-09-27T14:58:26;50.21;45.05;65.31;;
64996;Laerm;51545;51.568;6.998;2022-09-27T15:00:53;48.15;43.82;61.53;;
64996;Laerm;51545;51.568;6.998;2022-09-27T15:03:23;49.95;44.20;63.01;;
64996;Laerm;51545;51.568;6.998;2022-09-27T15:05:50;49.65;44.38;61.56;;
64996;Laerm;51545;51.568;6.998;2022-09-27T15:08:16;50.87;46.25;67.86;;
64996;Laerm;51545;51.568;6.998;2022-09-27T15:10:42;53.30;45.28;67.84;;
64996;Laerm;51545;51.568;6.998;2022-09-27T15:13:14;49.22;45.54;61.14;;
64996;Laerm;51545;51.568;6.998;2022-09-27T15:15:40;47.23;43.74;54.36;;
64996;Laerm;51545;51.568;6.998;2022-09-27T15:19:00;48.22;44.18;60.94;;
64996;Laerm;51545;51.568;6.998;2022-09-27T15:21:32;47.48;44.00;55.69;;
64996;Laerm;51545;51.568;6.998;2022-09-27T15:23:58;48.09;44.31;64.51;;
64996;Laerm;51545;51.568;6.998;2022-09-27T15:26:43;50.20;43.79;73.14;;
64996;Laerm;51545;51.568;6.998;2022-09-27T15:29:18;47.56;44.21;63.23;;
64996;Laerm;51545;51.568;6.998;2022-09-27T15:31:44;47.52;43.56;56.41;;
64996;Laerm;51545;51.568;6.998;2022-09-27T15:34:17;49.79;42.63;65.59;;
64996;Laerm;51545;51.568;6.998;2022-09-27T15:39:16;48.10;44.75;61.91;;
64996;Laerm;51545;51.568;6.998;2022-09-27T15:44:46;49.63;45.69;59.13;;
64996;Laerm;51545;51.568;6.998;2022-09-27T15:49:57;47.58;43.42;60.02;;
64996;Laerm;51545;51.568;6.998;2022-09-27T15:52:43;48.13;43.31;58.40;;
64996;Laerm;51545;51.568;6.998;2022-09-27T15:55:18;47.58;43.13;58.17;;
64996;Laerm;51545;51.568;6.998;2022-09-27T15:57:47;47.29;43.34;55.48;;
64996;Laerm;51545;51.568;6.998;2022-09-27T16:00:16;46.93;43.51;50.96;;
64996;Laerm;51545;51.568;6.998;2022-09-27T16:02:43;48.66;44.31;62.01;;
64996;Laerm;51545;51.568;6.998;2022-09-27T16:05:09;53.08;44.35;79.01;;
64996;Laerm;51545;51.568;6.998;2022-09-27T16:07:34;48.69;44.81;56.65;;
64996;Laerm;51545;51.568;6.998;2022-09-27T16:10:00;47.38;43.49;53.17;;
64996;Laerm;51545;51.568;6.998;2022-09-27T16:12:25;47.33;43.94;51.18;;
64996;Laerm;51545;51.568;6.998;2022-09-27T16:14:55;46.80;42.98;52.13;;
64996;Laerm;51545;51.568;6.998;2022-09-27T16:17:21;46.45;43.18;52.83;;
64996;Laerm;51545;51.568;6.998;2022-09-27T16:19:46;48.28;43.22;57.82;;
64996;Laerm;51545;51.568;6.998;2022-09-27T16:22:12;46.93;43.01;58.57;;
64996;Laerm;51545;51.568;6.998;2022-09-27T16:24:37;46.55;42.21;61.71;;
64996;Laerm;51545;51.568;6.998;2022-09-27T16:27:03;45.97;42.31;62.67;;
64996;Laerm;51545;51.568;6.998;2022-09-27T16:29:29;46.17;42.79;54.06;;
64996;Laerm;51545;51.568;6.998;2022-09-27T16:31:55;46.30;42.60;57.09;;